sensor_id;sensor_type;location;lat;lon;timestamp;P1;durP1;ratioP1;P2;durP2;ratioP2
58242;SDS011;50118;53.232;8.252;2023-03-14T00:01:57;15.00;;;3.50;;
58242;SDS011;50118;53.232;8.252;2023-03-14T00:04:23;16.88;;;3.95;;
58242;SDS011;50118;53.232;8.252;2023-03-14T00:06:48;14.27;;;3.33;;
58242;SDS011;50118;53.232;8.252;2023-03-14T00:09:14;15.90;;;3.53;;
58242;SDS011;50118;53.232;8.252;2023-03-14T00:11:40;15.85;;;3.72;;
58242;SDS011;50118;53.232;8.252;2023-03-14T00:14:06;14.27;;;3.38;;
58242;SDS011;50118;53.232;8.252;2023-03-14T00:16:31;16.52;;;3.60;;
58242;SDS011;50118;53.232;8.252;2023-03-14T00:19:00;16.33;;;3.40;;
58242;SDS011;50118;53.232;8.252;2023-03-14T00:21:26;15.15;;;3.00;;
58242;SDS011;50118;53.232;8.252;2023-03-14T00:23:51;16.48;;;3.63;;
58242;SDS011;50118;53.232;8.252;2023-03-14T00:26:18;15.90;;;3.50;;
58242;SDS011;50118;53.232;8.252;2023-03-14T00:28:44;14.77;;;3.17;;
58242;SDS011;50118;53.232;8.252;2023-03-14T00:31:11;18.05;;;3.35;;
58242;SDS011;50118;53.232;8.252;2023-03-14T00:33:39;19.70;;;3.83;;
58242;SDS011;50118;53.232;8.252;2023-03-14T00:36:08;20.10;;;4.50;;
58242;SDS011;50118;53.232;8.252;2023-03-14T00:38:36;19.92;;;3.63;;
58242;SDS011;50118;53.232;8.252;2023-03-14T00:41:03;16.08;;;3.33;;
58242;SDS011;50118;53.232;8.252;2023-03-14T00:43:33;16.73;;;3.78;;
58242;SDS011;50118;53.232;8.252;2023-03-14T00:45:58;18.25;;;4.10;;
58242;SDS011;50118;53.232;8.252;2023-03-14T00:48:24;14.70;;;3.78;;
58242;SDS011;50118;53.232;8.252;2023-03-14T00:50:50;15.32;;;3.83;;
58242;SDS011;50118;53.232;8.252;2023-03-14T00:53:15;15.27;;;3.65;;
58242;SDS011;50118;53.232;8.252;2023-03-14T00:55:41;16.15;;;3.53;;
58242;SDS011;50118;53.232;8.252;2023-03-14T00:58:08;14.73;;;3.58;;
58242;SDS011;50118;53.232;8.252;2023-03-14T01:00:35;13.27;;;3.25;;
58242;SDS011;50118;53.232;8.252;2023-03-14T01:03:01;12.35;;;3.13;;
58242;SDS011;50118;53.232;8.252;2023-03-14T01:05:27;14.50;;;3.30;;
58242;SDS011;50118;53.232;8.252;2023-03-14T01:07:53;14.13;;;3.13;;
58242;SDS011;50118;53.232;8.252;2023-03-14T01:10:18;13.38;;;3.17;;
58242;SDS011;50118;53.232;8.252;2023-03-14T01:12:44;11.75;;;2.95;;
58242;SDS011;50118;53.232;8.252;2023-03-14T01:15:09;7.90;;;2.67;;
58242;SDS011;50118;53.232;8.252;2023-03-14T01:17:35;10.13;;;2.90;;
58242;SDS011;50118;53.232;8.252;2023-03-14T01:20:03;9.38;;;3.17;;
58242;SDS011;50118;53.232;8.252;2023-03-14T01:22:29;10.93;;;3.30;;
58242;SDS011;50118;53.232;8.252;2023-03-14T01:24:55;11.35;;;3.10;;
58242;SDS011;50118;53.232;8.252;2023-03-14T01:27:21;8.23;;;2.83;;
58242;SDS011;50118;53.232;8.252;2023-03-14T01:29:47;10.48;;;2.75;;
58242;SDS011;50118;53.232;8.252;2023-03-14T01:32:13;12.73;;;3.65;;
58242;SDS011;50118;53.232;8.252;2023-03-14T01:34:38;12.10;;;3.08;;
58242;SDS011;50118;53.232;8.252;2023-03-14T01:37:04;8.13;;;3.35;;
58242;SDS011;50118;53.232;8.252;2023-03-14T01:39:30;8.82;;;3.25;;
58242;SDS011;50118;53.232;8.252;2023-03-14T01:41:55;8.70;;;2.90;;
58242;SDS011;50118;53.232;8.252;2023-03-14T01:44:21;8.70;;;3.00;;
58242;SDS011;50118;53.232;8.252;2023-03-14T01:46:46;10.77;;;3.53;;
58242;SDS011;50118;53.232;8.252;2023-03-14T01:49:45;7.95;;;3.10;;
58242;SDS011;50118;53.232;8.252;2023-03-14T01:52:10;11.23;;;3.03;;
58242;SDS011;50118;53.232;8.252;2023-03-14T01:54:53;10.38;;;3.75;;
58242;SDS011;50118;53.232;8.252;2023-03-14T01:57:36;12.77;;;3.67;;
58242;SDS011;50118;53.232;8.252;2023-03-14T02:00:11;8.75;;;3.70;;
58242;SDS011;50118;53.232;8.252;2023-03-14T02:02:40;10.73;;;3.40;;
58242;SDS011;50118;53.232;8.252;2023-03-14T02:05:20;8.55;;;3.50;;
58242;SDS011;50118;53.232;8.252;2023-03-14T02:07:50;8.13;;;3.92;;
58242;SDS011;50118;53.232;8.252;2023-03-14T02:10:18;9.30;;;3.45;;
58242;SDS011;50118;53.232;8.252;2023-03-14T02:12:47;9.20;;;3.13;;
58242;SDS011;50118;53.232;8.252;2023-03-14T02:15:14;11.55;;;3.25;;
58242;SDS011;50118;53.232;8.252;2023-03-14T02:17:43;7.78;;;3.35;;
58242;SDS011;50118;53.232;8.252;2023-03-14T02:20:14;7.88;;;3.10;;
58242;SDS011;50118;53.232;8.252;2023-03-14T02:22:46;8.32;;;3.28;;
58242;SDS011;50118;53.232;8.252;2023-03-14T02:25:14;10.95;;;3.33;;
58242;SDS011;50118;53.232;8.252;2023-03-14T02:27:41;13.07;;;3.75;;
58242;SDS011;50118;53.232;8.252;2023-03-14T02:30:08;9.20;;;3.60;;
58242;SDS011;50118;53.232;8.252;2023-03-14T02:32:37;7.75;;;3.28;;
58242;SDS011;50118;53.232;8.252;2023-03-14T02:35:06;10.55;;;3.38;;
58242;SDS011;50118;53.232;8.252;2023-03-14T02:37:42;7.75;;;3.40;;
58242;SDS011;50118;53.232;8.252;2023-03-14T02:40:13;7.78;;;2.65;;
58242;SDS011;50118;53.232;8.252;2023-03-14T02:42:39;4.70;;;1.60;;
58242;SDS011;50118;53.232;8.252;2023-03-14T02:47:34;2.00;;;1.10;;
58242;SDS011;50118;53.232;8.252;2023-03-14T02:50:03;2.92;;;1.13;;
58242;SDS011;50118;53.232;8.252;2023-03-14T02:52:32;4.20;;;1.10;;
58242;SDS011;50118;53.232;8.252;2023-03-14T02:54:57;4.20;;;1.13;;
58242;SDS011;50118;53.232;8.252;2023-03-14T02:57:23;7.05;;;1.63;;
58242;SDS011;50118;53.232;8.252;2023-03-14T02:59:48;5.00;;;1.83;;
58242;SDS011;50118;53.232;8.252;2023-03-14T03:02:13;4.75;;;1.50;;
58242;SDS011;50118;53.232;8.252;2023-03-14T03:04:39;4.22;;;1.40;;
58242;SDS011;50118;53.232;8.252;2023-03-14T03:07:04;5.32;;;1.70;;
58242;SDS011;50118;53.232;8.252;2023-03-14T03:09:30;5.50;;;1.90;;
58242;SDS011;50118;53.232;8.252;2023-03-14T03:11:55;6.53;;;1.40;;
58242;SDS011;50118;53.232;8.252;2023-03-14T03:14:21;6.82;;;1.95;;
58242;SDS011;50118;53.232;8.252;2023-03-14T03:16:46;10.38;;;2.08;;
58242;SDS011;50118;53.232;8.252;2023-03-14T03:19:11;5.85;;;1.83;;
58242;SDS011;50118;53.232;8.252;2023-03-14T03:21:38;6.13;;;2.05;;
58242;SDS011;50118;53.232;8.252;2023-03-14T03:24:04;10.80;;;2.70;;
58242;SDS011;50118;53.232;8.252;2023-03-14T03:26:29;7.75;;;2.47;;
58242;SDS011;50118;53.232;8.252;2023-03-14T03:28:55;8.60;;;2.47;;
58242;SDS011;50118;53.232;8.252;2023-03-14T03:31:20;12.35;;;2.83;;
58242;SDS011;50118;53.232;8.252;2023-03-14T03:33:46;7.43;;;2.65;;
58242;SDS011;50118;53.232;8.252;2023-03-14T03:36:11;9.60;;;2.78;;
58242;SDS011;50118;53.232;8.252;2023-03-14T03:38:36;9.60;;;2.80;;
58242;SDS011;50118;53.232;8.252;2023-03-14T03:41:06;8.70;;;3.35;;
58242;SDS011;50118;53.232;8.252;2023-03-14T03:43:31;12.18;;;3.00;;
58242;SDS011;50118;53.232;8.252;2023-03-14T03:45:57;10.63;;;3.38;;
58242;SDS011;50118;53.232;8.252;2023-03-14T03:48:23;10.57;;;3.50;;
58242;SDS011;50118;53.232;8.252;2023-03-14T03:50:48;9.80;;;3.30;;
58242;SDS011;50118;53.232;8.252;2023-03-14T03:53:13;9.25;;;3.00;;
58242;SDS011;50118;53.232;8.252;2023-03-14T03:55:42;9.07;;;3.00;;
58242;SDS011;50118;53.232;8.252;2023-03-14T03:58:07;6.82;;;2.70;;
58242;SDS011;50118;53.232;8.252;2023-03-14T04:00:33;10.13;;;3.00;;
58242;SDS011;50118;53.232;8.252;2023-03-14T04:02:59;9.93;;;2.95;;
58242;SDS011;50118;53.232;8.252;2023-03-14T04:05:25;8.07;;;2.50;;
58242;SDS011;50118;53.232;8.252;2023-03-14T04:07:50;8.98;;;2.42;;
58242;SDS011;50118;53.232;8.252;2023-03-14T04:10:16;10.27;;;2.70;;
58242;SDS011;50118;53.232;8.252;2023-03-14T04:12:41;9.52;;;2.83;;
58242;SDS011;50118;53.232;8.252;2023-03-14T04:15:07;9.32;;;2.40;;
58242;SDS011;50118;53.232;8.252;2023-03-14T04:17:33;7.97;;;2.90;;
58242;SDS011;50118;53.232;8.252;2023-03-14T04:19:59;10.05;;;2.88;;
58242;SDS011;50118;53.232;8.252;2023-03-14T04:22:25;6.53;;;3.05;;
58242;SDS011;50118;53.232;8.252;2023-03-14T04:24:50;8.93;;;3.33;;
58242;SDS011;50118;53.232;8.252;2023-03-14T04:27:16;8.68;;;3.45;;
58242;SDS011;50118;53.232;8.252;2023-03-14T04:29:41;7.80;;;3.08;;
58242;SDS011;50118;53.232;8.252;2023-03-14T04:32:07;10.60;;;3.45;;
58242;SDS011;50118;53.232;8.252;2023-03-14T04:34:33;9.65;;;3.38;;
58242;SDS011;50118;53.232;8.252;2023-03-14T04:36:58;8.38;;;2.78;;
58242;SDS011;50118;53.232;8.252;2023-03-14T04:39:24;8.50;;;2.97;;
58242;SDS011;50118;53.232;8.252;2023-03-14T04:41:49;10.10;;;3.63;;
58242;SDS011;50118;53.232;8.252;2023-03-14T04:44:15;6.72;;;3.45;;
58242;SDS011;50118;53.232;8.252;2023-03-14T04:46:40;6.03;;;3.17;;
58242;SDS011;50118;53.232;8.252;2023-03-14T04:49:05;6.47;;;2.78;;
58242;SDS011;50118;53.232;8.252;2023-03-14T04:51:31;5.55;;;2.50;;
58242;SDS011;50118;53.232;8.252;2023-03-14T04:53:56;5.13;;;2.40;;
58242;SDS011;50118;53.232;8.252;2023-03-14T04:56:22;6.57;;;2.70;;
58242;SDS011;50118;53.232;8.252;2023-03-14T04:58:47;6.63;;;2.78;;
58242;SDS011;50118;53.232;8.252;2023-03-14T05:01:12;8.35;;;2.47;;
58242;SDS011;50118;53.232;8.252;2023-03-14T05:03:38;9.20;;;2.78;;
58242;SDS011;50118;53.232;8.252;2023-03-14T05:06:04;8.02;;;2.53;;
58242;SDS011;50118;53.232;8.252;2023-03-14T05:08:30;7.47;;;2.47;;
58242;SDS011;50118;53.232;8.252;2023-03-14T05:10:56;8.43;;;2.40;;
58242;SDS011;50118;53.232;8.252;2023-03-14T05:13:22;6.32;;;2.35;;
58242;SDS011;50118;53.232;8.252;2023-03-14T05:15:48;8.52;;;2.40;;
58242;SDS011;50118;53.232;8.252;2023-03-14T05:18:15;5.82;;;2.20;;
58242;SDS011;50118;53.232;8.252;2023-03-14T05:20:41;7.30;;;2.45;;
58242;SDS011;50118;53.232;8.252;2023-03-14T05:23:08;6.47;;;2.42;;
58242;SDS011;50118;53.232;8.252;2023-03-14T05:25:34;9.05;;;2.33;;
58242;SDS011;50118;53.232;8.252;2023-03-14T05:27:59;10.95;;;3.20;;
58242;SDS011;50118;53.232;8.252;2023-03-14T05:30:25;7.82;;;2.40;;
58242;SDS011;50118;53.232;8.252;2023-03-14T05:32:50;8.50;;;2.67;;
58242;SDS011;50118;53.232;8.252;2023-03-14T05:35:16;8.60;;;2.95;;
58242;SDS011;50118;53.232;8.252;2023-03-14T05:37:41;7.40;;;2.35;;
58242;SDS011;50118;53.232;8.252;2023-03-14T05:40:07;7.15;;;2.53;;
58242;SDS011;50118;53.232;8.252;2023-03-14T05:42:33;7.57;;;2.40;;
58242;SDS011;50118;53.232;8.252;2023-03-14T05:44:59;5.53;;;2.40;;
58242;SDS011;50118;53.232;8.252;2023-03-14T05:47:24;8.13;;;2.67;;
58242;SDS011;50118;53.232;8.252;2023-03-14T05:49:50;7.47;;;2.67;;
58242;SDS011;50118;53.232;8.252;2023-03-14T05:52:16;7.05;;;2.60;;
58242;SDS011;50118;53.232;8.252;2023-03-14T05:54:41;8.82;;;3.00;;
58242;SDS011;50118;53.232;8.252;2023-03-14T05:57:06;7.18;;;2.60;;
58242;SDS011;50118;53.232;8.252;2023-03-14T05:59:32;8.88;;;3.22;;
58242;SDS011;50118;53.232;8.252;2023-03-14T06:01:57;7.88;;;2.70;;
58242;SDS011;50118;53.232;8.252;2023-03-14T06:04:23;7.03;;;2.53;;
58242;SDS011;50118;53.232;8.252;2023-03-14T06:06:49;8.00;;;3.08;;
58242;SDS011;50118;53.232;8.252;2023-03-14T06:09:14;8.52;;;2.65;;
58242;SDS011;50118;53.232;8.252;2023-03-14T06:11:40;9.68;;;2.80;;
58242;SDS011;50118;53.232;8.252;2023-03-14T06:14:05;8.00;;;2.88;;
58242;SDS011;50118;53.232;8.252;2023-03-14T06:16:31;7.80;;;2.78;;
58242;SDS011;50118;53.232;8.252;2023-03-14T06:18:57;7.40;;;3.13;;
58242;SDS011;50118;53.232;8.252;2023-03-14T06:21:22;7.80;;;3.15;;
58242;SDS011;50118;53.232;8.252;2023-03-14T06:23:47;9.95;;;2.97;;
58242;SDS011;50118;53.232;8.252;2023-03-14T06:26:13;8.43;;;2.90;;
58242;SDS011;50118;53.232;8.252;2023-03-14T06:28:38;7.45;;;2.95;;
58242;SDS011;50118;53.232;8.252;2023-03-14T06:31:04;8.38;;;3.15;;
58242;SDS011;50118;53.232;8.252;2023-03-14T06:33:30;10.23;;;4.15;;
58242;SDS011;50118;53.232;8.252;2023-03-14T06:35:55;10.48;;;3.20;;
58242;SDS011;50118;53.232;8.252;2023-03-14T06:38:20;8.88;;;3.10;;
58242;SDS011;50118;53.232;8.252;2023-03-14T06:40:46;8.55;;;2.83;;
58242;SDS011;50118;53.232;8.252;2023-03-14T06:43:11;6.13;;;2.53;;
58242;SDS011;50118;53.232;8.252;2023-03-14T06:45:37;9.18;;;2.75;;
58242;SDS011;50118;53.232;8.252;2023-03-14T06:48:02;8.70;;;2.80;;
58242;SDS011;50118;53.232;8.252;2023-03-14T06:50:28;7.45;;;2.70;;
58242;SDS011;50118;53.232;8.252;2023-03-14T06:52:53;7.13;;;2.65;;
58242;SDS011;50118;53.232;8.252;2023-03-14T06:55:19;6.70;;;2.40;;
58242;SDS011;50118;53.232;8.252;2023-03-14T06:57:45;8.18;;;2.50;;
58242;SDS011;50118;53.232;8.252;2023-03-14T07:00:11;8.55;;;2.90;;
58242;SDS011;50118;53.232;8.252;2023-03-14T07:02:38;6.30;;;2.65;;
58242;SDS011;50118;53.232;8.252;2023-03-14T07:07:35;6.80;;;2.75;;
58242;SDS011;50118;53.232;8.252;2023-03-14T07:10:00;8.35;;;2.70;;
58242;SDS011;50118;53.232;8.252;2023-03-14T07:12:26;11.98;;;2.80;;
58242;SDS011;50118;53.232;8.252;2023-03-14T07:14:51;8.35;;;2.58;;
58242;SDS011;50118;53.232;8.252;2023-03-14T07:17:17;9.10;;;2.55;;
58242;SDS011;50118;53.232;8.252;2023-03-14T07:19:42;5.05;;;2.40;;
58242;SDS011;50118;53.232;8.252;2023-03-14T07:22:07;8.00;;;2.47;;
58242;SDS011;50118;53.232;8.252;2023-03-14T07:24:33;10.63;;;3.40;;
58242;SDS011;50118;53.232;8.252;2023-03-14T07:26:58;10.27;;;3.20;;
58242;SDS011;50118;53.232;8.252;2023-03-14T07:29:24;7.53;;;2.88;;
58242;SDS011;50118;53.232;8.252;2023-03-14T07:31:49;9.70;;;3.10;;
58242;SDS011;50118;53.232;8.252;2023-03-14T07:34:15;9.60;;;2.88;;
58242;SDS011;50118;53.232;8.252;2023-03-14T07:36:40;8.88;;;2.90;;
58242;SDS011;50118;53.232;8.252;2023-03-14T07:39:06;8.05;;;2.88;;
58242;SDS011;50118;53.232;8.252;2023-03-14T07:41:31;9.68;;;2.88;;
58242;SDS011;50118;53.232;8.252;2023-03-14T07:43:57;9.20;;;2.80;;
58242;SDS011;50118;53.232;8.252;2023-03-14T07:46:23;8.27;;;2.90;;
58242;SDS011;50118;53.232;8.252;2023-03-14T07:48:48;8.52;;;2.70;;
58242;SDS011;50118;53.232;8.252;2023-03-14T07:51:14;8.35;;;2.60;;
58242;SDS011;50118;53.232;8.252;2023-03-14T07:53:39;8.80;;;2.88;;
58242;SDS011;50118;53.232;8.252;2023-03-14T07:56:05;8.13;;;2.63;;
58242;SDS011;50118;53.232;8.252;2023-03-14T07:58:30;7.68;;;3.00;;
58242;SDS011;50118;53.232;8.252;2023-03-14T08:00:58;7.82;;;2.53;;
58242;SDS011;50118;53.232;8.252;2023-03-14T08:03:23;10.13;;;2.95;;
58242;SDS011;50118;53.232;8.252;2023-03-14T08:05:49;8.02;;;2.50;;
58242;SDS011;50118;53.232;8.252;2023-03-14T08:08:16;8.35;;;3.00;;
58242;SDS011;50118;53.232;8.252;2023-03-14T08:10:42;8.20;;;3.00;;
58242;SDS011;50118;53.232;8.252;2023-03-14T08:13:08;9.00;;;3.30;;
58242;SDS011;50118;53.232;8.252;2023-03-14T08:15:34;7.00;;;3.00;;
58242;SDS011;50118;53.232;8.252;2023-03-14T08:18:00;7.38;;;2.67;;
58242;SDS011;50118;53.232;8.252;2023-03-14T08:20:26;9.25;;;3.13;;
58242;SDS011;50118;53.232;8.252;2023-03-14T08:22:56;5.13;;;2.58;;
58242;SDS011;50118;53.232;8.252;2023-03-14T08:25:23;8.98;;;3.50;;
58242;SDS011;50118;53.232;8.252;2023-03-14T08:27:49;6.60;;;2.38;;
58242;SDS011;50118;53.232;8.252;2023-03-14T08:30:15;3.38;;;1.20;;
58242;SDS011;50118;53.232;8.252;2023-03-14T08:32:41;5.75;;;1.40;;
58242;SDS011;50118;53.232;8.252;2023-03-14T08:35:07;2.25;;;0.90;;
58242;SDS011;50118;53.232;8.252;2023-03-14T08:37:34;4.80;;;1.17;;
58242;SDS011;50118;53.232;8.252;2023-03-14T08:40:00;5.45;;;1.35;;
58242;SDS011;50118;53.232;8.252;2023-03-14T08:42:26;4.85;;;1.20;;
58242;SDS011;50118;53.232;8.252;2023-03-14T08:44:51;4.28;;;1.20;;
58242;SDS011;50118;53.232;8.252;2023-03-14T08:47:17;4.97;;;1.20;;
58242;SDS011;50118;53.232;8.252;2023-03-14T08:49:43;7.80;;;1.50;;
58242;SDS011;50118;53.232;8.252;2023-03-14T08:52:08;5.47;;;1.30;;
58242;SDS011;50118;53.232;8.252;2023-03-14T08:54:34;4.90;;;1.20;;
58242;SDS011;50118;53.232;8.252;2023-03-14T08:57:00;3.72;;;0.90;;
58242;SDS011;50118;53.232;8.252;2023-03-14T08:59:25;1.85;;;0.70;;
58242;SDS011;50118;53.232;8.252;2023-03-14T09:01:51;4.63;;;1.00;;
58242;SDS011;50118;53.232;8.252;2023-03-14T09:04:17;4.22;;;0.60;;
58242;SDS011;50118;53.232;8.252;2023-03-14T09:06:42;3.75;;;0.77;;
58242;SDS011;50118;53.232;8.252;2023-03-14T09:09:07;0.73;;;0.50;;
58242;SDS011;50118;53.232;8.252;2023-03-14T09:11:33;1.75;;;0.70;;
58242;SDS011;50118;53.232;8.252;2023-03-14T09:13:59;1.55;;;0.60;;
58242;SDS011;50118;53.232;8.252;2023-03-14T09:16:24;1.10;;;0.50;;
58242;SDS011;50118;53.232;8.252;2023-03-14T09:18:50;0.90;;;0.55;;
58242;SDS011;50118;53.232;8.252;2023-03-14T09:21:19;1.88;;;0.75;;
58242;SDS011;50118;53.232;8.252;2023-03-14T09:23:45;3.13;;;0.63;;
58242;SDS011;50118;53.232;8.252;2023-03-14T09:26:10;1.45;;;0.50;;
58242;SDS011;50118;53.232;8.252;2023-03-14T09:28:36;1.13;;;0.45;;
58242;SDS011;50118;53.232;8.252;2023-03-14T09:31:05;2.53;;;0.70;;
58242;SDS011;50118;53.232;8.252;2023-03-14T09:33:32;2.15;;;0.50;;
58242;SDS011;50118;53.232;8.252;2023-03-14T09:35:58;0.50;;;0.50;;
58242;SDS011;50118;53.232;8.252;2023-03-14T09:38:27;1.65;;;0.75;;
58242;SDS011;50118;53.232;8.252;2023-03-14T09:40:53;1.45;;;0.50;;
58242;SDS011;50118;53.232;8.252;2023-03-14T09:43:19;2.00;;;0.60;;
58242;SDS011;50118;53.232;8.252;2023-03-14T09:45:48;2.03;;;0.68;;
58242;SDS011;50118;53.232;8.252;2023-03-14T09:48:15;1.33;;;0.57;;
58242;SDS011;50118;53.232;8.252;2023-03-14T09:50:47;2.15;;;0.80;;
58242;SDS011;50118;53.232;8.252;2023-03-14T09:53:37;2.45;;;0.90;;
58242;SDS011;50118;53.232;8.252;2023-03-14T09:56:08;3.17;;;0.70;;
58242;SDS011;50118;53.232;8.252;2023-03-14T09:58:38;1.73;;;0.70;;
58242;SDS011;50118;53.232;8.252;2023-03-14T10:01:08;2.28;;;1.20;;
58242;SDS011;50118;53.232;8.252;2023-03-14T10:03:39;3.80;;;1.00;;
58242;SDS011;50118;53.232;8.252;2023-03-14T10:06:13;2.90;;;0.80;;
58242;SDS011;50118;53.232;8.252;2023-03-14T10:08:40;5.30;;;0.98;;
58242;SDS011;50118;53.232;8.252;2023-03-14T10:11:11;1.70;;;0.60;;
58242;SDS011;50118;53.232;8.252;2023-03-14T10:16:29;3.90;;;1.00;;
58242;SDS011;50118;53.232;8.252;2023-03-14T10:19:01;2.78;;;0.93;;
58242;SDS011;50118;53.232;8.252;2023-03-14T10:21:35;2.53;;;0.90;;
58242;SDS011;50118;53.232;8.252;2023-03-14T10:26:55;3.58;;;0.88;;
58242;SDS011;50118;53.232;8.252;2023-03-14T10:29:26;3.53;;;1.02;;
58242;SDS011;50118;53.232;8.252;2023-03-14T10:34:21;3.83;;;1.20;;
58242;SDS011;50118;53.232;8.252;2023-03-14T10:36:52;6.43;;;1.35;;
58242;SDS011;50118;53.232;8.252;2023-03-14T10:45:57;7.20;;;1.50;;
58242;SDS011;50118;53.232;8.252;2023-03-14T10:50:47;5.93;;;1.40;;
58242;SDS011;50118;53.232;8.252;2023-03-14T10:53:16;8.40;;;1.52;;
58242;SDS011;50118;53.232;8.252;2023-03-14T10:55:43;11.82;;;2.15;;
58242;SDS011;50118;53.232;8.252;2023-03-14T10:58:20;7.32;;;1.58;;
58242;SDS011;50118;53.232;8.252;2023-03-14T11:00:48;9.90;;;1.92;;
58242;SDS011;50118;53.232;8.252;2023-03-14T11:03:18;8.90;;;2.20;;
58242;SDS011;50118;53.232;8.252;2023-03-14T11:05:49;9.95;;;1.58;;
58242;SDS011;50118;53.232;8.252;2023-03-14T11:08:31;9.93;;;1.80;;
58242;SDS011;50118;53.232;8.252;2023-03-14T11:11:08;10.70;;;2.00;;
58242;SDS011;50118;53.232;8.252;2023-03-14T11:13:47;10.57;;;2.17;;
58242;SDS011;50118;53.232;8.252;2023-03-14T11:22:25;10.32;;;2.13;;
58242;SDS011;50118;53.232;8.252;2023-03-14T11:30:36;9.88;;;2.00;;
58242;SDS011;50118;53.232;8.252;2023-03-14T11:35:45;13.07;;;2.47;;
58242;SDS011;50118;53.232;8.252;2023-03-14T11:41:14;11.95;;;2.28;;
58242;SDS011;50118;53.232;8.252;2023-03-14T11:43:47;13.98;;;2.63;;
58242;SDS011;50118;53.232;8.252;2023-03-14T11:46:18;13.25;;;2.70;;
58242;SDS011;50118;53.232;8.252;2023-03-14T11:51:38;12.98;;;2.33;;
58242;SDS011;50118;53.232;8.252;2023-03-14T11:54:18;16.27;;;2.80;;
58242;SDS011;50118;53.232;8.252;2023-03-14T11:57:05;9.25;;;2.28;;
58242;SDS011;50118;53.232;8.252;2023-03-14T12:10:19;9.90;;;2.20;;
58242;SDS011;50118;53.232;8.252;2023-03-14T12:12:44;10.63;;;2.17;;
58242;SDS011;50118;53.232;8.252;2023-03-14T12:15:17;12.68;;;2.28;;
58242;SDS011;50118;53.232;8.252;2023-03-14T12:17:45;11.00;;;2.20;;
58242;SDS011;50118;53.232;8.252;2023-03-14T12:25:17;8.20;;;1.95;;
58242;SDS011;50118;53.232;8.252;2023-03-14T12:27:48;9.85;;;1.90;;
58242;SDS011;50118;53.232;8.252;2023-03-14T12:43:27;11.98;;;2.15;;
58242;SDS011;50118;53.232;8.252;2023-03-14T12:46:40;11.07;;;2.10;;
58242;SDS011;50118;53.232;8.252;2023-03-14T12:48:45;6.35;;;1.60;;
58242;SDS011;50118;53.232;8.252;2023-03-14T12:59:36;11.65;;;2.20;;
58242;SDS011;50118;53.232;8.252;2023-03-14T13:15:21;6.20;;;1.40;;
58242;SDS011;50118;53.232;8.252;2023-03-14T13:17:51;6.45;;;1.75;;
58242;SDS011;50118;53.232;8.252;2023-03-14T13:21:02;9.10;;;1.67;;
58242;SDS011;50118;53.232;8.252;2023-03-14T13:23:36;12.02;;;1.88;;
58242;SDS011;50118;53.232;8.252;2023-03-14T13:26:01;12.82;;;2.08;;
58242;SDS011;50118;53.232;8.252;2023-03-14T13:28:27;9.65;;;1.98;;
58242;SDS011;50118;53.232;8.252;2023-03-14T13:31:01;10.40;;;2.03;;
58242;SDS011;50118;53.232;8.252;2023-03-14T13:36:04;8.85;;;2.03;;
58242;SDS011;50118;53.232;8.252;2023-03-14T13:38:34;10.65;;;2.97;;
58242;SDS011;50118;53.232;8.252;2023-03-14T13:41:04;9.88;;;3.15;;
58242;SDS011;50118;53.232;8.252;2023-03-14T13:43:39;9.43;;;2.00;;
58242;SDS011;50118;53.232;8.252;2023-03-14T13:46:07;7.72;;;1.90;;
58242;SDS011;50118;53.232;8.252;2023-03-14T13:48:45;6.18;;;1.60;;
58242;SDS011;50118;53.232;8.252;2023-03-14T13:51:15;8.55;;;1.60;;
58242;SDS011;50118;53.232;8.252;2023-03-14T13:53:52;9.77;;;2.20;;
58242;SDS011;50118;53.232;8.252;2023-03-14T13:56:22;8.27;;;1.80;;
58242;SDS011;50118;53.232;8.252;2023-03-14T13:58:56;7.72;;;2.00;;
58242;SDS011;50118;53.232;8.252;2023-03-14T14:01:26;8.65;;;1.75;;
58242;SDS011;50118;53.232;8.252;2023-03-14T14:03:56;6.45;;;1.88;;
58242;SDS011;50118;53.232;8.252;2023-03-14T14:06:31;9.32;;;1.65;;
58242;SDS011;50118;53.232;8.252;2023-03-14T14:08:58;6.50;;;1.75;;
58242;SDS011;50118;53.232;8.252;2023-03-14T14:13:57;8.25;;;1.92;;
58242;SDS011;50118;53.232;8.252;2023-03-14T14:16:24;7.43;;;1.88;;
58242;SDS011;50118;53.232;8.252;2023-03-14T14:18:53;8.60;;;1.83;;
58242;SDS011;50118;53.232;8.252;2023-03-14T14:21:20;8.80;;;2.38;;
58242;SDS011;50118;53.232;8.252;2023-03-14T14:23:46;6.45;;;1.60;;
58242;SDS011;50118;53.232;8.252;2023-03-14T14:26:14;5.32;;;1.42;;
58242;SDS011;50118;53.232;8.252;2023-03-14T14:28:43;8.35;;;1.58;;
58242;SDS011;50118;53.232;8.252;2023-03-14T14:36:31;5.03;;;1.50;;
58242;SDS011;50118;53.232;8.252;2023-03-14T14:41:39;5.18;;;1.55;;
58242;SDS011;50118;53.232;8.252;2023-03-14T14:44:07;5.57;;;1.08;;
58242;SDS011;50118;53.232;8.252;2023-03-14T14:46:36;6.03;;;1.60;;
58242;SDS011;50118;53.232;8.252;2023-03-14T14:49:17;6.60;;;1.73;;
58242;SDS011;50118;53.232;8.252;2023-03-14T14:51:47;5.82;;;1.50;;
58242;SDS011;50118;53.232;8.252;2023-03-14T14:54:18;12.32;;;2.05;;
58242;SDS011;50118;53.232;8.252;2023-03-14T14:56:46;11.98;;;1.80;;
58242;SDS011;50118;53.232;8.252;2023-03-14T14:59:21;7.68;;;1.60;;
58242;SDS011;50118;53.232;8.252;2023-03-14T15:01:48;7.13;;;1.70;;
58242;SDS011;50118;53.232;8.252;2023-03-14T15:04:16;8.30;;;1.70;;
58242;SDS011;50118;53.232;8.252;2023-03-14T15:06:45;7.70;;;1.88;;
58242;SDS011;50118;53.232;8.252;2023-03-14T15:09:13;6.90;;;1.70;;
58242;SDS011;50118;53.232;8.252;2023-03-14T15:11:39;6.75;;;1.75;;
58242;SDS011;50118;53.232;8.252;2023-03-14T15:14:04;11.43;;;2.17;;
58242;SDS011;50118;53.232;8.252;2023-03-14T15:16:32;5.28;;;1.50;;
58242;SDS011;50118;53.232;8.252;2023-03-14T15:18:59;11.50;;;1.90;;
58242;SDS011;50118;53.232;8.252;2023-03-14T15:21:30;9.52;;;1.75;;
58242;SDS011;50118;53.232;8.252;2023-03-14T15:23:56;7.25;;;1.42;;
58242;SDS011;50118;53.232;8.252;2023-03-14T15:26:22;5.47;;;1.35;;
58242;SDS011;50118;53.232;8.252;2023-03-14T15:28:50;7.55;;;1.52;;
58242;SDS011;50118;53.232;8.252;2023-03-14T15:31:16;9.07;;;1.90;;
58242;SDS011;50118;53.232;8.252;2023-03-14T15:33:44;8.05;;;1.75;;
58242;SDS011;50118;53.232;8.252;2023-03-14T15:36:21;9.82;;;1.80;;
58242;SDS011;50118;53.232;8.252;2023-03-14T15:38:54;5.88;;;1.30;;
58242;SDS011;50118;53.232;8.252;2023-03-14T15:41:20;7.53;;;1.75;;
58242;SDS011;50118;53.232;8.252;2023-03-14T15:43:47;9.48;;;1.77;;
58242;SDS011;50118;53.232;8.252;2023-03-14T15:46:13;8.70;;;1.60;;
58242;SDS011;50118;53.232;8.252;2023-03-14T15:48:39;7.93;;;1.85;;
58242;SDS011;50118;53.232;8.252;2023-03-14T15:51:06;8.32;;;1.40;;
58242;SDS011;50118;53.232;8.252;2023-03-14T15:53:31;8.10;;;1.50;;
58242;SDS011;50118;53.232;8.252;2023-03-14T15:55:57;7.88;;;1.52;;
58242;SDS011;50118;53.232;8.252;2023-03-14T15:58:22;8.90;;;2.10;;
58242;SDS011;50118;53.232;8.252;2023-03-14T16:00:48;7.40;;;1.58;;
58242;SDS011;50118;53.232;8.252;2023-03-14T16:03:14;8.07;;;1.83;;
58242;SDS011;50118;53.232;8.252;2023-03-14T16:05:39;9.48;;;1.90;;
58242;SDS011;50118;53.232;8.252;2023-03-14T16:08:05;7.75;;;1.50;;
58242;SDS011;50118;53.232;8.252;2023-03-14T16:10:31;11.32;;;2.08;;
58242;SDS011;50118;53.232;8.252;2023-03-14T16:12:57;10.15;;;1.88;;
58242;SDS011;50118;53.232;8.252;2023-03-14T16:15:23;5.75;;;1.70;;
58242;SDS011;50118;53.232;8.252;2023-03-14T16:17:54;6.05;;;1.50;;
58242;SDS011;50118;53.232;8.252;2023-03-14T16:20:20;8.88;;;1.60;;
58242;SDS011;50118;53.232;8.252;2023-03-14T16:22:46;7.53;;;1.77;;
58242;SDS011;50118;53.232;8.252;2023-03-14T16:25:12;8.13;;;2.25;;
58242;SDS011;50118;53.232;8.252;2023-03-14T16:27:37;6.85;;;1.75;;
58242;SDS011;50118;53.232;8.252;2023-03-14T16:30:03;13.18;;;3.45;;
58242;SDS011;50118;53.232;8.252;2023-03-14T16:32:29;7.63;;;1.40;;
58242;SDS011;50118;53.232;8.252;2023-03-14T16:34:54;7.75;;;1.98;;